Jard de Loiza, Puerto Rico
Current Conditions -  °F | °C
As of 1:53 PM on Thursday 23 Oct 2014 (Local Time) from TJNR Reporting Station
Scattered Clouds Scattered Clouds  
Wind Chill: 87°   Ceiling: Unl
Heat Index: 97°   Visibility: 10mi
Dew Point: 76°   Wind: 9mph
Humidity: 69%   Direction: 110°ESE
Pressure: 29.92"   Gusts: NA
Location:  18.2022°N, 65.86°W
Report Text: TJNR 231753Z AUTO 11008KT 10SM FEW033 SCT050 SCT065 31/24 A2992 RMK AO2 SLP131 T03060244 10317 20283 57021 $
Loading
Personal Weather Stations






























Interactive Weather Map
Tropical Storm Tracking
New forecast layout! Learn more

10-Day Weather Forecast

Advertisements
Track Severe Weather on mobile